Time;durP1;ratioP1;P1;durP2;ratioP2;P2;SDS_P1;SDS_P2;PMS_P1;PMS_P2;Temp;Humidity;BMP_temperature;BMP_pressure;BME280_temperature;BME280_humidity;BME280_pressure;Samples;Min_cycle;Max_cycle;Signal;HPM_P1;HPM_P2
2023/06/27 00:02:20;;;;;;;3.65;2.03;;;20.50;44.10;;;22.22;36.01;97975.41;4953565;28;20047;-53
2023/06/27 00:04:48;;;;;;;2.90;2.00;;;20.50;44.20;;;22.19;36.51;97973.13;4954398;29;20054;-50
2023/06/27 00:07:16;;;;;;;4.43;2.10;;;20.50;44.20;;;22.18;36.15;97987.75;4954354;28;20047;-56
2023/06/27 00:09:44;;;;;;;4.63;2.38;;;20.50;44.00;;;22.13;36.15;97983.00;4954275;29;20418;-56
2023/06/27 00:12:11;;;;;;;4.47;2.40;;;20.40;44.10;;;22.10;36.40;97985.34;4954422;29;20043;-54
2023/06/27 00:14:39;;;;;;;4.22;2.00;;;20.40;44.20;;;22.07;36.73;97981.22;4954437;29;20066;-55
2023/06/27 00:17:07;;;;;;;3.50;1.77;;;20.40;44.40;;;22.11;36.48;97987.84;4953818;29;20044;-56
2023/06/27 00:19:35;;;;;;;4.82;2.05;;;20.40;43.90;;;22.07;36.61;97983.91;4954028;29;20065;-54
2023/06/27 00:22:04;;;;;;;5.82;2.55;;;20.40;44.30;;;22.06;36.65;97993.09;4954264;29;20058;-55
2023/06/27 00:24:33;;;;;;;3.22;1.83;;;20.40;44.40;;;22.03;37.00;97990.84;4953985;29;20419;-56
2023/06/27 00:27:01;;;;;;;3.95;2.92;;;20.30;44.70;;;22.03;37.03;97990.84;4949528;29;20054;-55
2023/06/27 00:29:29;;;;;;;4.70;2.20;;;20.30;44.80;;;22.07;36.53;98000.19;4953489;29;20066;-56
2023/06/27 00:31:56;;;;;;;5.20;2.35;;;20.30;44.70;;;22.09;36.86;97989.13;4951983;28;20400;-54
2023/06/27 00:34:24;;;;;;;3.08;2.00;;;20.30;44.50;;;22.09;36.65;97999.97;4953716;29;20415;-54
2023/06/27 00:36:52;;;;;;;3.25;2.30;;;20.40;44.50;;;22.07;36.99;97994.75;4953709;28;20062;-56
2023/06/27 00:39:20;;;;;;;3.33;2.30;;;20.30;44.80;;;22.10;36.86;97996.19;4953475;29;20047;-56
2023/06/27 00:41:48;;;;;;;3.95;2.03;;;20.40;44.80;;;22.07;36.93;97988.53;4951725;29;20055;-54
2023/06/27 00:44:16;;;;;;;5.15;2.10;;;20.30;44.80;;;22.10;36.47;97990.75;4953755;29;20039;-54
2023/06/27 00:46:50;;;;;;;6.22;3.28;;;20.30;44.60;;;22.08;36.79;97992.88;4944708;29;20059;-52
2023/06/27 00:49:21;;;;;;;3.80;2.60;;;20.30;44.80;;;22.05;36.48;97996.06;4936673;29;20054;-54
2023/06/27 00:51:50;;;;;;;5.90;2.25;;;20.30;44.90;;;22.02;36.72;97998.16;4952351;28;20051;-55
2023/06/27 00:54:18;;;;;;;4.78;2.63;;;20.30;44.80;;;22.01;36.96;98004.63;4936761;29;20043;-54
2023/06/27 00:56:48;;;;;;;3.85;1.95;;;20.30;44.80;;;22.01;36.87;97999.22;4953082;28;20058;-56
2023/06/27 00:59:15;;;;;;;3.28;2.00;;;20.30;44.80;;;21.98;37.16;98015.94;4953265;28;20040;-55
2023/06/27 01:01:43;;;;;;;5.10;2.28;;;20.20;45.20;;;21.96;37.06;98004.47;4953738;28;20047;-56
2023/06/27 01:04:11;;;;;;;2.53;1.95;;;20.20;45.10;;;21.97;36.72;98008.03;4951533;28;20055;-56
2023/06/27 01:07:07;;;;;;;4.82;1.95;;;20.20;45.10;;;21.97;36.97;98005.31;4951656;29;20148;-55
2023/06/27 01:09:45;;;;;;;3.63;2.17;;;20.30;45.50;;;22.02;37.01;98017.13;4931357;29;20047;-56
2023/06/27 01:12:56;;;;;;;3.40;2.13;;;20.30;45.40;;;22.00;37.00;98011.13;4936814;29;20453;-55
2023/06/27 01:15:25;;;;;;;4.47;2.17;;;20.30;45.20;;;22.01;37.11;98009.22;4946454;29;20043;-57
2023/06/27 01:17:54;;;;;;;2.83;1.80;;;20.30;45.20;;;22.00;37.22;98004.84;4943131;29;20047;-56
2023/06/27 01:20:23;;;;;;;4.03;3.15;;;20.30;46.00;;;22.00;36.75;98016.53;4935993;29;20415;-56
2023/06/27 01:23:09;;;;;;;6.40;2.20;;;20.30;45.80;;;21.93;36.86;98010.34;4936376;29;20051;-57
2023/06/27 01:25:37;;;;;;;5.10;2.30;;;20.20;45.80;;;21.89;37.03;98005.59;4953176;29;20491;-56
2023/06/27 01:28:07;;;;;;;4.30;2.25;;;20.10;45.70;;;21.90;37.07;98001.84;4952146;28;20468;-56
2023/06/27 01:30:35;;;;;;;5.63;2.20;;;20.10;45.60;;;21.89;37.13;98013.72;4952765;29;20051;-56
2023/06/27 01:33:08;;;;;;;4.72;2.13;;;20.10;45.50;;;21.87;37.00;98013.13;4952873;29;20058;-55
2023/06/27 01:35:55;;;;;;;3.17;2.50;;;20.20;45.60;;;21.84;37.46;98014.41;4953085;29;20054;-53
2023/06/27 01:38:58;;;;;;;5.55;2.20;;;20.20;46.10;;;21.79;37.53;98006.13;4951217;29;20407;-55
2023/06/27 01:41:30;;;;;;;4.25;2.40;;;20.00;46.20;;;21.80;37.61;98013.22;4929969;29;20043;-54
2023/06/27 01:44:04;;;;;;;3.30;2.35;;;20.10;46.30;;;21.80;37.18;98015.91;4920289;29;20510;-55
2023/06/27 01:46:33;;;;;;;4.13;2.25;;;20.10;45.90;;;21.79;37.80;98009.69;4951212;29;20395;-55
2023/06/27 01:49:03;;;;;;;3.53;2.17;;;20.00;45.90;;;21.76;37.56;98004.69;4935191;29;20047;-54
2023/06/27 01:51:32;;;;;;;6.63;2.28;;;20.00;46.00;;;21.76;37.81;98006.59;4936006;29;20053;-54
2023/06/27 01:54:00;;;;;;;7.10;2.75;;;20.00;46.20;;;21.73;37.65;98007.88;4950926;28;20422;-55
2023/06/27 01:56:27;;;;;;;4.50;2.55;;;20.00;46.10;;;21.74;37.81;98004.09;4951142;29;20051;-56
2023/06/27 01:58:55;;;;;;;4.57;2.22;;;20.00;46.10;;;21.73;37.34;98007.88;4950846;29;20605;-56
2023/06/27 02:01:23;;;;;;;4.53;3.13;;;20.00;46.00;;;21.72;37.44;98014.31;4951203;29;20043;-55
2023/06/27 02:03:50;;;;;;;4.25;2.00;;;20.00;45.80;;;21.70;37.69;98008.31;4951210;29;20214;-56
2023/06/27 02:06:18;;;;;;;5.35;2.83;;;20.00;46.20;;;21.69;37.71;98022.88;4952653;29;20044;-56
2023/06/27 02:08:46;;;;;;;3.95;2.10;;;19.90;46.20;;;21.65;38.01;98024.38;4951042;29;20526;-52
2023/06/27 02:11:13;;;;;;;3.75;2.20;;;19.90;46.40;;;21.65;38.04;98024.38;4947571;29;20051;-55
2023/06/27 02:13:42;;;;;;;3.40;1.92;;;19.90;46.40;;;21.65;37.48;98012.72;4952637;29;20043;-54
2023/06/27 02:16:11;;;;;;;2.80;1.90;;;19.90;46.20;;;21.63;37.79;98015.66;4950929;29;20407;-55
2023/06/27 02:18:39;;;;;;;4.20;2.08;;;19.90;46.30;;;21.60;38.09;98013.41;4950784;29;20054;-56
2023/06/27 02:21:06;;;;;;;4.13;2.67;;;19.80;46.30;;;21.58;37.82;98007.41;4951063;29;20503;-57
2023/06/27 02:23:34;;;;;;;4.97;2.45;;;19.80;46.30;;;21.47;38.07;98003.53;4942739;29;20047;-56
2023/06/27 02:26:03;;;;;;;6.40;2.13;;;19.60;46.70;;;21.44;37.74;97995.81;4950553;28;20051;-56
2023/06/27 02:28:31;;;;;;;4.15;2.78;;;19.70;46.70;;;21.43;38.04;98000.41;4951419;29;20400;-56
2023/06/27 02:30:58;;;;;;;3.13;2.33;;;19.60;46.60;;;21.39;37.97;97991.06;4934864;29;20078;-55
2023/06/27 02:33:27;;;;;;;7.18;2.53;;;19.60;46.60;;;21.40;37.80;97992.72;4952408;29;20047;-57
2023/06/27 02:35:55;;;;;;;5.80;2.83;;;19.60;46.60;;;21.38;37.99;97992.13;4952133;29;20055;-54
2023/06/27 02:38:23;;;;;;;5.32;2.28;;;19.60;46.30;;;21.30;38.02;97988.84;4951897;29;20047;-56
2023/06/27 02:40:50;;;;;;;4.47;2.50;;;19.60;46.40;;;21.21;38.07;97994.56;4951061;29;20047;-57
2023/06/27 02:43:18;;;;;;;4.78;2.25;;;19.40;46.60;;;21.18;37.91;97994.16;4952287;29;20039;-55
2023/06/27 02:45:45;;;;;;;4.50;2.40;;;19.40;46.80;;;21.11;38.23;97991.53;4952106;28;20115;-57
2023/06/27 02:48:13;;;;;;;9.15;2.35;;;19.30;46.90;;;21.08;37.95;98000.06;4951761;29;20051;-56
2023/06/27 02:50:41;;;;;;;3.92;2.08;;;19.30;47.00;;;21.07;38.11;97998.41;4952342;29;20043;-55
2023/06/27 02:53:09;;;;;;;5.13;2.25;;;19.30;46.90;;;21.02;38.09;98001.78;4952334;29;20054;-53
2023/06/27 02:55:37;;;;;;;4.72;2.30;;;19.20;47.00;;;21.00;38.13;97989.53;4950720;28;20058;-56
2023/06/27 02:58:06;;;;;;;5.88;2.22;;;19.20;47.00;;;21.01;38.50;97985.75;4954180;29;20051;-54
2023/06/27 03:00:33;;;;;;;3.72;2.38;;;19.30;47.10;;;21.03;38.44;97995.34;4945290;29;20545;-56
2023/06/27 03:03:01;;;;;;;4.50;2.17;;;19.30;47.00;;;21.01;37.98;97999.28;4954421;29;20047;-54
2023/06/27 03:05:29;;;;;;;4.25;2.08;;;19.30;47.10;;;20.97;38.43;97996.19;4954274;28;20040;-56
2023/06/27 03:07:58;;;;;;;4.57;2.05;;;19.20;47.00;;;20.95;38.34;98000.16;4953830;29;20052;-57
2023/06/27 03:10:26;;;;;;;6.25;2.90;;;19.10;47.10;;;20.91;38.37;98009.78;4953733;28;20087;-54
2023/06/27 03:12:54;;;;;;;3.45;2.28;;;19.10;47.20;;;20.89;38.49;98004.56;4953826;29;20062;-52
2023/06/27 03:15:22;;;;;;;9.68;3.28;;;19.10;47.30;;;20.88;38.48;98005.63;4953615;29;20059;-56
2023/06/27 03:17:49;;;;;;;4.43;2.03;;;19.10;47.00;;;20.80;38.48;98006.72;4955282;29;20422;-56
2023/06/27 03:20:20;;;;;;;3.72;2.30;;;19.00;47.30;;;20.76;38.64;98005.50;4953237;29;20537;-54
2023/06/27 03:22:48;;;;;;;5.05;2.28;;;19.00;47.30;;;20.72;38.40;98004.25;4945767;29;20507;-54
2023/06/27 03:25:16;;;;;;;5.45;2.60;;;18.90;47.60;;;20.70;38.62;98002.81;4937805;29;20055;-54
2023/06/27 03:27:44;;;;;;;5.45;2.28;;;18.90;47.70;;;20.71;38.63;98007.22;4952177;29;20397;-54
2023/06/27 03:30:13;;;;;;;7.65;2.42;;;18.90;47.70;;;20.70;38.76;98002.81;4953261;29;20422;-56
2023/06/27 03:32:42;;;;;;;4.20;2.30;;;18.90;47.70;;;20.71;38.84;98007.22;4943039;29;20067;-56
2023/06/27 03:35:10;;;;;;;4.32;2.00;;;18.90;47.70;;;20.71;38.82;98010.72;4953462;29;20047;-56
2023/06/27 03:37:38;;;;;;;5.03;2.13;;;18.90;47.70;;;20.69;38.76;98010.13;4953648;29;20058;-55
2023/06/27 03:40:06;;;;;;;4.10;2.50;;;18.90;47.60;;;20.68;38.53;98007.63;4944662;29;20414;-53
2023/06/27 03:42:34;;;;;;;4.45;1.90;;;18.90;47.70;;;20.69;38.63;98012.81;4937332;29;20039;-53
2023/06/27 03:45:03;;;;;;;4.63;2.13;;;18.90;47.80;;;20.68;38.81;98011.16;4953547;29;20043;-53
2023/06/27 03:47:30;;;;;;;3.65;1.90;;;18.90;47.90;;;20.65;38.80;98017.00;4945563;29;20035;-56
2023/06/27 03:49:58;;;;;;;3.08;1.90;;;18.80;48.60;;;20.63;38.70;98016.41;4954559;29;20047;-56
2023/06/27 03:52:26;;;;;;;2.92;2.00;;;18.80;47.70;;;20.62;38.82;98017.44;4953287;28;20055;-55
2023/06/27 03:54:54;;;;;;;3.30;2.00;;;18.80;47.80;;;20.61;38.64;98010.38;4953596;29;20051;-53
2023/06/27 03:57:22;;;;;;;4.53;2.03;;;18.80;47.60;;;20.60;39.06;98014.13;4952875;28;20051;-55
2023/06/27 03:59:49;;;;;;;3.25;2.15;;;18.80;47.60;;;20.57;38.72;98009.94;4953093;28;20047;-56
2023/06/27 04:02:17;;;;;;;4.05;1.90;;;18.80;47.50;;;20.53;38.68;98008.72;4953089;28;20047;-55
2023/06/27 04:04:46;;;;;;;2.88;2.28;;;18.80;47.40;;;20.51;38.98;98008.13;4952944;29;20062;-56
2023/06/27 04:07:15;;;;;;;3.97;2.08;;;18.80;47.80;;;20.50;39.19;98011.84;4948799;28;20052;-56
2023/06/27 04:09:46;;;;;;;3.35;1.90;;;18.80;47.80;;;20.48;39.48;98013.13;4952741;29;20051;-55
2023/06/27 04:12:13;;;;;;;8.88;2.30;;;18.80;48.20;;;20.46;39.08;98014.16;4954570;29;20050;-54
2023/06/27 04:14:41;;;;;;;3.78;2.50;;;18.70;48.40;;;20.45;39.19;98020.63;4954554;29;20147;-54
2023/06/27 04:17:09;;;;;;;4.53;1.88;;;18.70;48.50;;;20.47;39.41;98028.50;4936632;29;20055;-56
2023/06/27 04:19:38;;;;;;;4.78;2.70;;;18.70;48.50;;;20.46;39.22;98016.03;4952518;29;20047;-55
2023/06/27 04:22:06;;;;;;;6.95;2.45;;;18.70;48.70;;;20.46;39.65;98021.44;4952445;29;20047;-55
2023/06/27 04:24:34;;;;;;;5.93;2.30;;;18.70;48.80;;;20.47;39.88;98014.97;4952969;29;20048;-55
2023/06/27 04:27:02;;;;;;;4.80;2.13;;;18.70;48.80;;;20.48;39.60;98023.94;4952759;29;20726;-53
2023/06/27 04:29:30;;;;;;;6.03;2.30;;;18.80;49.00;;;20.49;39.64;98026.44;4953090;28;20069;-56
2023/06/27 04:31:57;;;;;;;3.92;2.38;;;18.80;49.00;;;20.52;39.89;98023.28;4954253;29;20419;-51
2023/06/27 04:34:25;;;;;;;3.03;2.33;;;18.80;48.90;;;20.52;39.85;98023.28;4954248;29;20411;-54
2023/06/27 04:36:52;;;;;;;4.72;2.55;;;18.80;49.30;;;20.50;39.73;98019.97;4952539;29;20048;-55
2023/06/27 04:39:20;;;;;;;5.28;3.30;;;18.80;49.30;;;20.51;39.80;98031.59;4953731;28;20055;-55
2023/06/27 04:41:48;;;;;;;6.05;2.50;;;18.70;49.40;;;20.46;40.07;98026.84;4954142;29;20039;-57
2023/06/27 04:44:16;;;;;;;3.45;2.08;;;18.70;49.60;;;20.46;40.24;98032.25;4953995;29;20515;-56
2023/06/27 04:46:43;;;;;;;5.38;2.20;;;18.70;49.80;;;20.45;40.01;98033.28;4953909;29;20047;-53
2023/06/27 04:49:11;;;;;;;3.28;2.00;;;18.70;49.80;;;20.42;40.08;98036.44;4953515;29;20054;-56
2023/06/27 04:51:39;;;;;;;4.72;2.30;;;18.70;50.10;;;20.38;40.97;98038.75;4953799;29;20502;-55
2023/06/27 04:54:06;;;;;;;4.95;2.65;;;18.60;50.40;;;20.36;40.80;98043.53;4953897;29;20051;-52
2023/06/27 04:56:34;;;;;;;2.75;2.20;;;18.60;50.50;;;20.38;40.66;98032.50;4953806;29;20043;-55
2023/06/27 04:59:02;;;;;;;3.50;2.17;;;18.70;50.40;;;20.44;40.82;98039.75;4951960;29;20055;-54
2023/06/27 05:01:29;;;;;;;4.20;2.30;;;18.70;50.60;;;20.46;40.47;98034.97;4936569;29;20044;-54
2023/06/27 05:04:04;;;;;;;2.65;1.75;;;18.70;50.20;;;20.48;40.70;98035.59;4952386;29;20511;-55
2023/06/27 05:06:33;;;;;;;3.35;1.83;;;18.80;50.10;;;20.48;40.51;98034.75;4952552;29;20426;-54
2023/06/27 05:09:01;;;;;;;4.60;2.00;;;18.70;50.10;;;20.47;40.65;98033.91;4953244;29;20043;-54
2023/06/27 05:11:30;;;;;;;2.70;1.95;;;18.70;50.30;;;20.45;40.75;98038.69;4953535;29;20396;-56
2023/06/27 05:13:57;;;;;;;4.18;2.13;;;18.70;50.40;;;20.49;40.64;98044.50;4936484;29;20059;-55
2023/06/27 05:16:25;;;;;;;3.22;2.30;;;18.70;50.20;;;20.45;40.35;98038.69;4952265;29;20051;-54
2023/06/27 05:18:53;;;;;;;4.13;1.80;;;18.70;50.00;;;20.42;40.14;98041.84;4952681;28;20058;-54
2023/06/27 05:21:21;;;;;;;5.45;2.47;;;18.70;49.80;;;20.45;40.17;98038.69;4953252;29;20423;-53
2023/06/27 05:23:49;;;;;;;6.55;2.40;;;18.70;49.80;;;20.47;40.52;98036.59;4953412;29;20043;-56
2023/06/27 05:26:16;;;;;;;3.33;2.00;;;18.80;49.90;;;20.48;40.45;98038.28;4953174;28;20054;-54
2023/06/27 05:28:44;;;;;;;3.78;1.92;;;18.80;49.80;;;20.54;40.25;98042.00;4952260;29;20047;-55
2023/06/27 05:31:11;;;;;;;5.00;2.03;;;18.90;49.70;;;20.57;39.99;98036.16;4953253;29;20054;-54
2023/06/27 05:33:39;;;;;;;3.65;2.13;;;18.90;49.30;;;20.62;40.38;98033.66;4953215;29;20051;-53
2023/06/27 05:36:07;;;;;;;2.90;2.15;;;19.00;49.40;;;20.64;40.29;98045.09;4953144;29;20054;-55
2023/06/27 05:38:34;;;;;;;2.80;2.05;;;19.00;49.00;;;20.67;40.00;98044.69;4952484;28;20051;-55
2023/06/27 05:41:02;;;;;;;4.45;2.00;;;19.10;49.20;;;20.71;40.19;98045.91;4953009;29;20040;-56
2023/06/27 05:43:30;;;;;;;5.50;3.05;;;19.10;49.50;;;20.72;40.23;98055.66;4953073;29;20047;-56
2023/06/27 05:45:57;;;;;;;4.50;3.70;;;19.10;49.50;;;20.80;40.60;98049.16;4952684;29;20054;-58
2023/06/27 05:48:25;;;;;;;3.65;2.67;;;19.20;49.80;;;20.88;40.73;98054.34;4954898;28;20115;-57
2023/06/27 05:50:52;;;;;;;5.57;2.50;;;19.30;49.60;;;20.95;40.55;98054.28;4953015;29;20066;-59
2023/06/27 05:53:20;;;;;;;5.15;2.08;;;19.40;49.30;;;20.97;40.33;98057.59;4952998;29;20040;-57
2023/06/27 05:55:48;;;;;;;5.20;2.00;;;19.40;49.30;;;20.95;40.18;98059.69;4952912;29;20047;-59
2023/06/27 05:58:16;;;;;;;3.47;1.77;;;19.40;49.20;;;20.90;40.20;98059.50;4952415;28;20058;-59
2023/06/27 06:00:43;;;;;;;7.70;2.45;;;19.30;48.90;;;20.87;40.02;98060.78;4944658;29;20423;-57
2023/06/27 06:03:12;;;;;;;6.30;2.10;;;19.30;49.10;;;20.84;40.13;98039.59;4952824;29;20042;-58
2023/06/27 06:05:40;;;;;;;5.65;2.88;;;19.20;49.30;;;20.90;40.27;98045.97;4952540;29;20050;-58
2023/06/27 06:08:08;;;;;;;6.00;2.00;;;19.30;49.30;;;20.95;40.31;98049.69;4952600;29;20039;-58
2023/06/27 06:10:36;;;;;;;6.03;2.47;;;19.40;49.30;;;20.91;39.74;98058.47;4952151;29;20055;-56
2023/06/27 06:13:04;;;;;;;5.70;2.42;;;19.30;49.00;;;20.89;40.05;98053.28;4952481;28;20110;-56
2023/06/27 06:15:31;;;;;;;4.07;2.47;;;19.30;49.00;;;20.92;40.00;98046.59;4951332;29;20058;-58
2023/06/27 06:17:59;;;;;;;4.50;1.83;;;19.20;49.40;;;20.94;40.12;98047.25;4952337;28;20052;-59
2023/06/27 06:20:29;;;;;;;3.42;2.47;;;19.30;49.30;;;20.95;40.01;98043.47;4952329;29;20051;-58
2023/06/27 06:22:56;;;;;;;3.97;2.08;;;19.30;49.50;;;20.92;39.79;98042.03;4952436;29;20055;-58
2023/06/27 06:25:24;;;;;;;4.05;2.33;;;19.30;48.90;;;20.97;40.00;98044.06;4952435;28;20040;-59
2023/06/27 06:27:52;;;;;;;4.47;2.10;;;19.40;49.10;;;21.04;39.80;98047.56;4948611;29;20043;-55
2023/06/27 06:30:19;;;;;;;4.05;1.92;;;19.40;48.10;;;21.03;39.50;98045.91;4952399;28;20043;-57
2023/06/27 06:32:47;;;;;;;7.35;2.67;;;19.50;48.30;;;20.96;39.76;98050.56;4956192;29;20043;-51
2023/06/27 06:35:15;;;;;;;3.92;1.73;;;19.30;48.50;;;20.94;39.73;98055.34;4955190;29;20422;-56
2023/06/27 06:37:42;;;;;;;4.60;2.08;;;19.30;48.90;;;20.97;39.57;98053.00;4974297;28;20054;-56
2023/06/27 06:40:11;;;;;;;3.75;2.22;;;19.40;48.20;;;20.92;39.52;98052.84;4960590;28;20035;-57
2023/06/27 06:42:38;;;;;;;9.57;2.50;;;19.30;48.20;;;20.94;39.52;98045.34;4955630;29;20121;-56
2023/06/27 06:45:08;;;;;;;4.43;2.17;;;19.40;48.10;;;20.95;39.23;98049.69;4953977;29;20051;-57
2023/06/27 06:47:36;;;;;;;5.22;2.10;;;19.40;47.80;;;21.04;39.65;98051.09;4955875;29;20422;-55
2023/06/27 06:50:04;;;;;;;4.35;2.15;;;19.60;47.70;;;21.06;39.11;98058.19;4955243;29;20051;-55
2023/06/27 06:52:32;;;;;;;4.28;1.85;;;19.60;47.30;;;21.00;39.08;98068.00;4955809;29;20396;-54
2023/06/27 06:54:59;;;;;;;4.80;2.08;;;19.50;47.50;;;21.07;39.09;98066.06;4955622;29;20043;-55
2023/06/27 06:57:27;;;;;;;7.75;2.90;;;19.60;47.40;;;21.12;38.75;98062.72;4955613;29;20062;-55
2023/06/27 06:59:55;;;;;;;6.97;2.35;;;19.60;46.80;;;21.14;38.76;98058.75;4955533;29;20055;-56
2023/06/27 07:02:22;;;;;;;4.65;2.05;;;19.70;46.80;;;21.20;39.29;98057.84;4955648;29;20043;-55
2023/06/27 07:04:50;;;;;;;8.48;2.85;;;19.80;47.00;;;21.29;38.91;98060.31;4947783;29;20415;-57
2023/06/27 07:07:18;;;;;;;4.57;2.58;;;19.80;46.50;;;21.30;37.93;98053.84;4955188;29;20039;-58
2023/06/27 07:09:45;;;;;;;6.68;2.47;;;19.90;45.00;;;21.33;38.46;98056.94;4955042;28;20411;-57
2023/06/27 07:12:13;;;;;;;6.13;2.45;;;19.90;45.60;;;21.39;38.25;98064.19;4955505;28;20035;-57
2023/06/27 07:14:40;;;;;;;6.22;2.35;;;20.00;45.00;;;21.46;38.08;98063.31;4955420;28;20055;-57
2023/06/27 07:17:08;;;;;;;7.15;2.70;;;20.10;45.70;;;21.54;38.55;98054.91;4955278;29;20061;-55
2023/06/27 07:19:35;;;;;;;5.13;2.92;;;20.20;45.80;;;21.61;38.55;98055.69;4955134;29;20058;-58
2023/06/27 07:22:03;;;;;;;3.28;1.88;;;20.20;46.00;;;21.67;38.01;98060.22;4955204;29;20035;-57
2023/06/27 07:24:31;;;;;;;6.65;1.80;;;20.20;45.40;;;21.65;37.66;98056.91;4955166;28;20043;-57
2023/06/27 07:26:58;;;;;;;2.90;2.13;;;20.20;44.10;;;21.67;36.98;98062.09;4953462;29;20518;-57
2023/06/27 07:29:26;;;;;;;7.15;2.05;;;20.20;43.50;;;21.75;37.43;98064.53;4954980;29;20036;-58
2023/06/27 07:31:54;;;;;;;5.78;2.30;;;20.30;44.30;;;21.86;37.40;98061.09;4955139;29;20047;-58
2023/06/27 07:34:22;;;;;;;4.65;2.38;;;20.40;44.70;;;21.93;37.12;98055.63;4954343;29;20047;-57
2023/06/27 07:36:49;;;;;;;3.17;1.80;;;20.50;43.80;;;22.00;36.92;98043.66;4954175;28;20097;-55
2023/06/27 07:39:17;;;;;;;4.15;2.20;;;20.60;43.90;;;22.13;36.29;98050.78;4954541;29;20055;-57
2023/06/27 07:41:45;;;;;;;3.20;1.90;;;20.80;41.70;;;22.15;35.29;98056.81;4954714;28;20491;-54
2023/06/27 07:44:12;;;;;;;4.80;1.98;;;20.80;40.70;;;22.18;35.48;98061.78;4955042;29;20036;-56
2023/06/27 07:46:40;;;;;;;5.80;1.77;;;20.80;41.40;;;22.25;35.64;98059.03;4953677;29;20474;-58
2023/06/27 07:49:08;;;;;;;1.85;1.40;;;20.90;41.80;;;22.35;35.80;98063.91;4954416;28;20388;-59
2023/06/27 07:51:35;;;;;;;3.88;1.77;;;21.00;41.40;;;22.42;35.70;98065.50;4953132;29;20070;-58
2023/06/27 07:54:03;;;;;;;2.72;2.10;;;21.10;41.50;;;22.49;35.44;98064.59;4954822;29;20503;-59
2023/06/27 07:56:31;;;;;;;5.45;1.70;;;21.10;40.10;;;22.55;34.68;98064.50;4954668;29;20396;-59
2023/06/27 07:58:59;;;;;;;3.10;1.90;;;21.20;40.30;;;22.57;34.53;98065.13;4954367;29;20070;-59
2023/06/27 08:01:27;;;;;;;5.93;2.85;;;21.20;40.30;;;22.60;34.41;98058.41;4953432;29;20499;-58
2023/06/27 08:03:54;;;;;;;4.97;2.33;;;21.30;39.70;;;22.62;34.16;98053.56;4954409;28;20203;-59
2023/06/27 08:06:22;;;;;;;4.35;2.58;;;21.30;39.30;;;22.68;34.14;98054.53;4955119;28;20047;-59
2023/06/27 08:08:49;;;;;;;3.90;2.20;;;21.40;39.30;;;22.72;34.28;98050.31;4953824;28;20043;-58
2023/06/27 08:11:17;;;;;;;4.88;1.92;;;21.40;39.60;;;22.78;34.00;98049.41;4954562;28;20051;-59
2023/06/27 08:13:45;;;;;;;2.67;1.95;;;21.50;39.60;;;22.82;34.25;98045.16;4954292;29;20047;-59
2023/06/27 08:16:13;;;;;;;4.28;2.00;;;21.40;39.70;;;22.81;33.84;98044.31;4954276;29;20055;-59
2023/06/27 08:18:40;;;;;;;4.97;2.35;;;21.40;39.60;;;22.81;34.06;98046.22;4953939;29;20051;-59
2023/06/27 08:21:08;;;;;;;3.88;2.20;;;21.40;39.50;;;22.83;33.67;98044.09;4954261;29;20074;-59
2023/06/27 08:23:35;;;;;;;3.58;2.03;;;21.40;39.60;;;22.95;34.27;98044.13;4954256;29;20054;-59
2023/06/27 08:26:03;;;;;;;4.75;2.15;;;21.60;39.90;;;23.02;33.88;98044.88;4954154;29;20043;-59
2023/06/27 08:28:31;;;;;;;4.28;2.17;;;21.70;39.20;;;23.09;33.99;98042.09;4953927;29;20043;-59
2023/06/27 08:30:58;;;;;;;2.85;2.05;;;21.80;39.30;;;23.18;33.92;98030.66;4954262;29;20047;-60
2023/06/27 08:33:26;;;;;;;4.72;2.40;;;21.90;39.40;;;23.21;34.24;98032.09;4953513;29;20043;-59
2023/06/27 08:35:54;;;;;;;3.40;1.88;;;21.90;39.50;;;23.29;34.25;98020.88;4953822;28;20066;-58
2023/06/27 08:38:22;;;;;;;3.88;1.95;;;22.00;39.70;;;23.40;33.98;98027.41;4953577;29;20639;-59
2023/06/27 08:40:54;;;;;;;3.75;1.98;;;22.10;39.50;;;23.47;34.01;98032.72;4954354;29;20055;-58
2023/06/27 08:43:23;;;;;;;4.28;2.75;;;22.10;39.20;;;23.54;33.58;98023.38;4953768;29;20070;-58
2023/06/27 08:46:02;;;;;;;4.05;2.00;;;22.20;39.00;;;23.56;33.02;98023.16;4953817;28;20051;-59
2023/06/27 08:48:30;;;;;;;3.85;2.13;;;22.20;38.10;;;23.54;33.18;98023.38;4950607;29;20491;-59
2023/06/27 08:51:00;;;;;;;5.85;2.75;;;22.20;38.50;;;23.46;33.33;98025.59;4936834;29;20043;-58
2023/06/27 08:53:29;;;;;;;4.97;2.03;;;22.10;38.70;;;23.37;33.10;98025.97;4936193;28;20044;-59
2023/06/27 08:56:15;;;;;;;2.67;2.25;;;22.00;38.40;;;23.24;33.52;98023.47;4953711;28;20050;-59
2023/06/27 08:58:51;;;;;;;4.18;2.00;;;21.80;38.50;;;23.26;33.72;98018.63;4936551;28;20051;-59
2023/06/27 09:01:22;;;;;;;4.72;2.22;;;21.70;39.40;;;23.24;33.29;98022.63;4953675;29;20047;-59
2023/06/27 09:03:50;;;;;;;3.83;2.30;;;21.80;38.60;;;23.21;33.09;98017.69;4936567;29;20526;-59
2023/06/27 09:06:18;;;;;;;4.75;2.05;;;21.80;38.70;;;23.17;33.23;98025.47;4936568;29;20047;-59
2023/06/27 09:08:48;;;;;;;2.45;1.90;;;21.80;38.30;;;23.22;33.16;98016.63;4953136;28;20066;-59
2023/06/27 09:11:16;;;;;;;5.07;2.05;;;21.70;38.40;;;23.25;33.43;98016.97;4936645;29;20423;-59
2023/06/27 09:13:44;;;;;;;4.57;1.83;;;21.80;38.80;;;23.35;33.67;98014.50;4953345;29;20058;-59
2023/06/27 09:16:12;;;;;;;2.38;1.95;;;22.00;39.00;;;23.42;33.20;98008.13;4953376;29;20047;-59
2023/06/27 09:18:40;;;;;;;4.05;2.10;;;22.10;38.50;;;23.50;33.36;98007.81;4952877;28;20054;-59
2023/06/27 09:21:08;;;;;;;2.97;2.10;;;22.20;38.40;;;23.53;32.96;98007.31;4953409;29;20518;-59
2023/06/27 09:23:36;;;;;;;4.07;2.20;;;22.30;38.00;;;23.53;32.59;98010.03;4936220;29;20070;-59
2023/06/27 09:26:12;;;;;;;4.03;2.08;;;22.30;37.50;;;23.52;32.69;98011.09;4953260;29;20038;-59
2023/06/27 09:28:49;;;;;;;3.08;2.53;;;22.20;37.50;;;23.55;32.59;98006.03;4948882;28;20043;-59
2023/06/27 09:31:20;;;;;;;5.13;2.88;;;22.20;37.30;;;23.65;32.57;98010.88;4953203;29;20062;-55
2023/06/27 09:33:48;;;;;;;5.28;2.40;;;22.30;37.40;;;23.67;32.58;98014.19;4952173;28;20426;-56
2023/06/27 09:36:32;;;;;;;3.75;2.05;;;22.30;37.50;;;23.67;32.64;98000.59;4952666;29;20043;-58
2023/06/27 09:39:04;;;;;;;4.38;1.80;;;22.40;37.30;;;23.75;32.41;98000.22;4952665;28;20039;-57
2023/06/27 09:41:50;;;;;;;4.97;2.10;;;22.50;37.30;;;23.82;32.48;98000.13;4953321;29;20043;-57
2023/06/27 09:44:20;;;;;;;2.78;2.47;;;22.60;37.40;;;23.92;32.27;98007.69;4946875;29;20418;-55
2023/06/27 09:46:51;;;;;;;5.43;2.25;;;22.60;37.20;;;23.97;32.20;98011.34;4952485;29;20043;-57
2023/06/27 09:49:20;;;;;;;3.53;1.95;;;22.70;37.10;;;24.00;31.93;98007.34;4952560;29;20043;-57
2023/06/27 09:51:50;;;;;;;4.65;2.58;;;22.60;36.70;;;24.03;31.90;97998.69;4935987;29;20055;-56
2023/06/27 09:54:21;;;;;;;4.85;3.97;;;22.60;36.80;;;24.08;31.84;98003.38;4953030;29;20047;-57
2023/06/27 09:56:50;;;;;;;3.67;2.50;;;22.60;36.90;;;24.12;31.48;97996.44;4952518;29;20050;-55
2023/06/27 09:59:22;;;;;;;3.50;2.35;;;22.60;36.50;;;24.13;31.55;97998.06;4950595;28;20047;-58
2023/06/27 10:01:53;;;;;;;5.45;2.30;;;22.60;36.60;;;24.10;31.19;97999.38;4952749;29;20495;-57
2023/06/27 10:04:23;;;;;;;3.50;2.00;;;22.60;35.70;;;24.05;31.83;97995.72;4935719;28;20046;-56
2023/06/27 10:07:13;;;;;;;3.70;2.42;;;22.50;37.20;;;24.16;31.59;98000.31;4955694;29;20065;-55
2023/06/27 10:09:41;;;;;;;4.78;2.20;;;22.70;36.90;;;24.25;31.49;98000.75;4955252;29;20395;-57
2023/06/27 10:12:10;;;;;;;4.22;2.25;;;22.80;35.90;;;24.20;31.35;97987.06;4944740;28;20039;-58
2023/06/27 10:14:38;;;;;;;6.32;2.03;;;22.70;37.20;;;24.23;31.60;97994.72;4939624;29;20043;-56
2023/06/27 10:17:05;;;;;;;3.72;2.33;;;22.80;36.70;;;24.29;32.01;97999.19;4956317;29;20604;-55
2023/06/27 10:19:37;;;;;;;3.65;2.20;;;22.80;37.20;;;24.34;31.13;98004.75;4956316;29;20055;-57
2023/06/27 10:22:11;;;;;;;3.65;2.60;;;22.90;36.00;;;24.43;31.31;98008.75;4939613;29;20043;-55
2023/06/27 10:24:41;;;;;;;3.63;2.20;;;23.00;35.50;;;24.27;31.14;97995.91;4939605;29;20047;-57
2023/06/27 10:27:13;;;;;;;2.83;2.25;;;22.80;36.30;;;24.40;31.63;97997.53;4947226;29;20087;-58
2023/06/27 10:29:41;;;;;;;4.03;2.35;;;22.90;36.50;;;24.51;31.35;97997.50;4956046;28;20051;-55